Time;durP1;ratioP1;P1;durP2;ratioP2;P2;SDS_P1;SDS_P2;PMS_P1;PMS_P2;Temp;Humidity;BMP_temperature;BMP_pressure;BME280_temperature;BME280_humidity;BME280_pressure;Samples;Min_cycle;Max_cycle;Signal;HPM_P1;HPM_P2
2022/10/21 00:01:18;;;;;;;10.30;9.30;;;16.60;99.90;;;;;;5011632;28;20532;-75
2022/10/21 00:03:44;;;;;;;10.47;8.90;;;16.60;99.90;;;;;;5010480;28;20640;-75
2022/10/21 00:06:10;;;;;;;12.60;9.67;;;16.60;99.90;;;;;;5011595;28;20193;-74
2022/10/21 00:08:37;;;;;;;10.77;8.57;;;16.50;99.90;;;;;;5010401;28;20945;-75
2022/10/21 00:11:06;;;;;;;12.33;10.33;;;16.60;99.90;;;;;;5011776;28;20572;-75
2022/10/21 00:13:34;;;;;;;10.63;8.73;;;16.50;99.90;;;;;;5011472;28;20566;-74
2022/10/21 00:16:15;;;;;;;12.13;10.10;;;16.50;99.90;;;;;;5011639;28;20593;-75
2022/10/21 00:18:43;;;;;;;10.97;9.30;;;16.50;99.90;;;;;;5010406;28;20613;-75
2022/10/21 00:21:13;;;;;;;10.20;9.10;;;16.50;99.90;;;;;;5010304;28;20574;-75
2022/10/21 00:23:39;;;;;;;9.50;8.53;;;16.50;99.90;;;;;;5011405;28;20568;-75
2022/10/21 00:26:05;;;;;;;18.13;10.03;;;16.50;99.90;;;;;;5024292;28;20625;-75
2022/10/21 00:28:31;;;;;;;10.03;8.80;;;16.50;99.90;;;;;;5002189;28;20578;-75
2022/10/21 00:30:57;;;;;;;9.80;8.90;;;16.50;99.90;;;;;;5027347;28;20584;-75
2022/10/21 00:33:24;;;;;;;9.83;8.57;;;16.50;99.90;;;;;;5025452;28;20622;-75
2022/10/21 00:36:00;;;;;;;11.20;9.53;;;16.50;99.90;;;;;;5009129;28;20604;-75
2022/10/21 00:38:26;;;;;;;8.60;7.80;;;16.50;99.90;;;;;;5021992;28;20623;-75
2022/10/21 00:40:52;;;;;;;11.53;8.53;;;16.50;99.90;;;;;;5008710;28;21348;-76
2022/10/21 00:43:18;;;;;;;9.00;8.10;;;16.40;99.90;;;;;;5029234;28;20220;-75
2022/10/21 00:45:46;;;;;;;13.10;9.07;;;16.40;99.90;;;;;;5017424;28;21183;-75
2022/10/21 00:48:18;;;;;;;10.67;7.83;;;16.40;99.90;;;;;;5017363;28;20677;-75
2022/10/21 00:51:10;;;;;;;9.10;8.20;;;16.30;99.90;;;;;;5035065;28;21115;-75
2022/10/21 00:53:41;;;;;;;8.60;7.80;;;16.30;99.90;;;;;;5034101;28;20993;-76
2022/10/21 00:56:11;;;;;;;10.43;7.70;;;16.30;99.90;;;;;;5000771;28;21187;-75
2022/10/21 00:58:37;;;;;;;8.53;7.73;;;16.30;99.90;;;;;;5016943;28;20627;-75
2022/10/21 01:01:05;;;;;;;7.90;7.10;;;16.30;99.90;;;;;;5034699;28;20564;-75
2022/10/21 01:03:36;;;;;;;9.80;8.80;;;16.30;99.90;;;;;;5039920;28;20564;-75
2022/10/21 01:06:08;;;;;;;10.20;6.73;;;16.20;99.90;;;;;;5017546;28;20600;-76
2022/10/21 01:08:38;;;;;;;6.90;6.20;;;16.20;99.90;;;;;;5034488;28;20612;-76
2022/10/21 01:11:09;;;;;;;9.70;7.50;;;16.30;99.90;;;;;;5017052;28;20568;-76
2022/10/21 01:13:53;;;;;;;7.50;6.80;;;16.30;99.90;;;;;;5034383;28;20599;-76
2022/10/21 01:16:23;;;;;;;8.87;6.30;;;16.30;99.90;;;;;;5016709;28;20591;-76
2022/10/21 01:19:21;;;;;;;8.00;7.20;;;16.30;99.90;;;;;;5034418;28;20608;-76
2022/10/21 01:22:06;;;;;;;7.93;7.13;;;16.30;99.90;;;;;;4999957;28;20588;-76
2022/10/21 01:24:49;;;;;;;8.50;7.70;;;16.30;99.90;;;;;;5034214;28;20594;-76
2022/10/21 01:27:25;;;;;;;6.63;5.87;;;16.30;99.90;;;;;;5032942;28;20572;-76
2022/10/21 01:30:09;;;;;;;9.00;8.10;;;16.30;99.90;;;;;;5034300;28;20587;-76
2022/10/21 01:32:50;;;;;;;6.97;6.27;;;16.20;99.90;;;;;;5035993;28;20679;-76
2022/10/21 01:35:38;;;;;;;7.40;6.00;;;16.20;99.90;;;;;;5039335;28;20685;-77
2022/10/21 01:38:11;;;;;;;7.60;6.80;;;16.30;99.90;;;;;;5043805;28;20569;-76
2022/10/21 01:41:02;;;;;;;7.77;6.10;;;16.30;99.90;;;;;;5031125;28;20699;-76
2022/10/21 01:43:36;;;;;;;6.23;5.63;;;16.20;99.90;;;;;;5019763;28;21163;-77
2022/10/21 01:46:25;;;;;;;6.43;5.40;;;16.20;99.90;;;;;;5017410;28;20588;-76
2022/10/21 01:48:59;;;;;;;6.53;5.80;;;16.20;99.90;;;;;;5017522;28;20569;-76
2022/10/21 01:51:27;;;;;;;5.60;4.90;;;16.20;99.90;;;;;;5034821;28;20572;-76
2022/10/21 01:54:06;;;;;;;5.53;5.00;;;16.20;99.90;;;;;;5016715;28;20675;-76
2022/10/21 01:56:34;;;;;;;6.47;4.60;;;16.20;99.90;;;;;;5034336;28;20595;-76
2022/10/21 01:59:02;;;;;;;13.10;6.87;;;16.20;99.90;;;;;;5016219;28;20634;-76
2022/10/21 02:01:29;;;;;;;8.53;6.50;;;16.30;99.90;;;;;;5033797;28;20557;-76
2022/10/21 02:03:59;;;;;;;6.77;5.20;;;16.30;99.90;;;;;;5018889;28;20666;-77
2022/10/21 02:06:25;;;;;;;7.50;5.90;;;16.30;99.90;;;;;;5018473;28;20643;-77
2022/10/21 02:08:51;;;;;;;7.67;5.30;;;16.40;99.90;;;;;;5035940;28;21124;-76
2022/10/21 02:11:17;;;;;;;8.30;6.70;;;16.40;99.90;;;;;;5033666;28;20579;-75
2022/10/21 02:14:00;;;;;;;8.17;6.80;;;16.40;99.90;;;;;;5033216;28;20185;-76
2022/10/21 02:16:30;;;;;;;7.13;5.60;;;16.40;99.90;;;;;;5015962;28;20998;-76
2022/10/21 02:18:58;;;;;;;6.83;4.60;;;16.50;99.90;;;;;;5037266;28;20634;-76
2022/10/21 02:21:27;;;;;;;5.70;4.80;;;16.50;99.90;;;;;;5033053;28;20564;-76
2022/10/21 02:24:00;;;;;;;7.70;5.83;;;16.50;99.90;;;;;;5015256;28;20603;-76
2022/10/21 02:26:27;;;;;;;7.07;6.10;;;16.40;99.90;;;;;;5015506;28;20612;-76
2022/10/21 02:28:55;;;;;;;6.83;6.10;;;16.50;99.90;;;;;;5033104;28;20591;-76
2022/10/21 02:31:34;;;;;;;6.03;4.67;;;16.50;99.90;;;;;;5032902;28;20626;-75
2022/10/21 02:34:09;;;;;;;6.90;5.20;;;16.50;99.90;;;;;;5032701;28;20623;-75
2022/10/21 02:36:57;;;;;;;5.27;4.87;;;16.50;99.90;;;;;;5032864;28;20951;-75
2022/10/21 02:39:29;;;;;;;6.00;5.47;;;16.50;99.90;;;;;;5032814;28;20653;-75
2022/10/21 02:41:58;;;;;;;6.30;4.67;;;16.50;99.90;;;;;;5014990;28;20608;-75
2022/10/21 02:44:25;;;;;;;6.93;5.27;;;16.50;99.90;;;;;;5015097;28;20667;-75
2022/10/21 02:46:51;;;;;;;5.80;4.30;;;16.50;99.90;;;;;;4998843;28;21147;-75
2022/10/21 02:49:17;;;;;;;7.80;5.50;;;16.40;99.90;;;;;;5032638;28;20576;-75
2022/10/21 02:51:44;;;;;;;6.57;4.30;;;16.40;99.90;;;;;;5032520;28;21039;-75
2022/10/21 02:54:10;;;;;;;6.73;4.90;;;16.40;99.90;;;;;;5017099;28;20170;-76
2022/10/21 02:56:36;;;;;;;5.93;5.43;;;16.40;99.90;;;;;;5017881;28;20699;-76
2022/10/21 02:59:01;;;;;;;4.93;4.47;;;16.30;99.90;;;;;;5032975;28;20762;-76
2022/10/21 03:01:27;;;;;;;8.27;5.07;;;16.30;99.90;;;;;;5014738;28;20252;-76
2022/10/21 03:03:53;;;;;;;6.07;5.47;;;16.30;99.90;;;;;;5014820;28;20181;-76
2022/10/21 03:06:19;;;;;;;6.50;5.27;;;16.30;99.90;;;;;;5032454;28;20604;-76
2022/10/21 03:08:45;;;;;;;5.03;4.53;;;16.30;99.90;;;;;;5032730;28;20181;-75
2022/10/21 03:11:10;;;;;;;8.03;5.33;;;16.30;99.90;;;;;;5032192;28;20176;-76
2022/10/21 03:13:36;;;;;;;6.93;5.00;;;16.30;99.90;;;;;;5031873;28;20196;-76
2022/10/21 03:16:02;;;;;;;7.10;5.27;;;16.30;99.90;;;;;;5032011;28;20572;-75
2022/10/21 03:18:28;;;;;;;5.70;4.83;;;16.30;99.90;;;;;;5032347;28;20247;-76
2022/10/21 03:20:53;;;;;;;5.67;4.30;;;16.30;99.90;;;;;;5001103;28;20171;-75
2022/10/21 03:23:20;;;;;;;4.70;4.27;;;16.30;99.90;;;;;;4994792;28;20171;-75
2022/10/21 03:25:46;;;;;;;5.60;4.03;;;16.30;99.90;;;;;;5002631;28;20209;-76
2022/10/21 03:28:12;;;;;;;6.53;5.00;;;16.40;99.90;;;;;;5025915;28;21208;-76
2022/10/21 03:30:38;;;;;;;4.27;3.87;;;16.40;99.90;;;;;;5015012;28;20572;-76
2022/10/21 03:33:04;;;;;;;6.60;4.47;;;16.40;99.90;;;;;;5035845;28;20572;-76
2022/10/21 03:35:29;;;;;;;5.03;3.90;;;16.40;99.90;;;;;;5033120;28;20201;-76
2022/10/21 03:37:55;;;;;;;4.97;4.23;;;16.40;99.90;;;;;;5032874;28;20586;-76
2022/10/21 03:40:22;;;;;;;4.97;3.60;;;16.40;99.90;;;;;;5015661;28;20677;-76
2022/10/21 03:42:49;;;;;;;3.40;3.10;;;16.40;99.90;;;;;;5033814;28;20170;-76
2022/10/21 03:45:15;;;;;;;3.40;3.10;;;16.40;99.90;;;;;;5015714;28;21386;-76
2022/10/21 03:47:40;;;;;;;6.53;3.83;;;16.40;99.90;;;;;;5033256;28;20607;-76
2022/10/21 03:50:06;;;;;;;4.70;3.53;;;16.40;99.90;;;;;;5031738;28;20572;-76
2022/10/21 03:52:32;;;;;;;4.07;3.53;;;16.30;99.90;;;;;;5031287;28;20169;-75
2022/10/21 03:54:58;;;;;;;7.90;4.50;;;16.30;99.90;;;;;;5031542;28;20688;-75
2022/10/21 03:57:24;;;;;;;5.53;3.83;;;16.40;99.90;;;;;;5004957;28;20716;-75
2022/10/21 03:59:49;;;;;;;5.70;3.50;;;16.40;99.90;;;;;;5011734;28;20201;-75
2022/10/21 04:02:15;;;;;;;5.60;4.27;;;16.40;99.90;;;;;;5011351;28;20879;-75
2022/10/21 04:04:41;;;;;;;4.30;3.90;;;16.40;99.90;;;;;;5011668;28;20249;-75
2022/10/21 04:07:07;;;;;;;6.77;4.33;;;16.40;99.90;;;;;;4994171;28;20181;-75
2022/10/21 04:09:32;;;;;;;6.03;4.30;;;16.40;99.90;;;;;;5017561;28;20166;-75
2022/10/21 04:11:58;;;;;;;4.20;3.23;;;16.40;99.90;;;;;;5015929;28;20200;-75
2022/10/21 04:14:24;;;;;;;5.30;4.80;;;16.40;99.90;;;;;;5015786;28;20162;-76
2022/10/21 04:16:49;;;;;;;7.10;3.93;;;16.50;99.90;;;;;;5015817;28;20217;-75
2022/10/21 04:19:18;;;;;;;4.77;3.37;;;16.50;99.90;;;;;;5015653;28;20253;-75
2022/10/21 04:21:44;;;;;;;6.03;3.50;;;16.50;99.90;;;;;;4998145;28;20175;-75
2022/10/21 04:24:10;;;;;;;5.13;3.53;;;16.50;99.90;;;;;;4997849;28;20620;-75
2022/10/21 04:26:36;;;;;;;5.60;3.70;;;16.50;99.90;;;;;;4997981;28;20644;-76
2022/10/21 04:29:02;;;;;;;4.70;3.00;;;16.50;99.90;;;;;;5015385;28;20989;-74
2022/10/21 04:31:28;;;;;;;6.87;3.30;;;16.60;99.90;;;;;;5012798;28;20216;-74
2022/10/21 04:33:53;;;;;;;5.30;3.70;;;16.60;99.90;;;;;;5015042;28;20989;-75
2022/10/21 04:36:19;;;;;;;3.77;3.00;;;16.60;99.90;;;;;;5014286;28;20616;-74
2022/10/21 04:38:45;;;;;;;4.87;3.20;;;16.60;99.90;;;;;;5015233;28;20202;-74
2022/10/21 04:41:11;;;;;;;3.90;3.17;;;16.70;99.90;;;;;;5015315;28;20623;-74
2022/10/21 04:43:36;;;;;;;2.73;2.40;;;16.70;99.90;;;;;;5015115;28;20162;-74
2022/10/21 04:46:03;;;;;;;6.17;3.30;;;16.70;99.90;;;;;;5017062;28;20754;-74
2022/10/21 04:48:29;;;;;;;3.67;3.33;;;16.70;99.90;;;;;;5015601;28;20720;-75
2022/10/21 04:50:55;;;;;;;5.60;3.00;;;16.80;99.90;;;;;;5014929;28;20668;-74
2022/10/21 04:53:22;;;;;;;4.30;3.00;;;16.80;99.90;;;;;;4997034;28;20573;-74
2022/10/21 04:55:52;;;;;;;4.97;3.40;;;16.80;99.90;;;;;;5014817;28;20605;-74
2022/10/21 04:58:19;;;;;;;5.37;2.80;;;16.80;99.90;;;;;;5015076;28;20565;-74
2022/10/21 05:00:45;;;;;;;7.13;2.93;;;16.90;99.90;;;;;;5014437;28;20645;-74
2022/10/21 05:03:11;;;;;;;5.47;2.70;;;16.90;99.90;;;;;;4980849;28;20667;-74
2022/10/21 05:05:36;;;;;;;5.83;3.00;;;16.90;99.90;;;;;;5014243;28;20199;-74
2022/10/21 05:08:02;;;;;;;3.20;2.50;;;16.90;99.90;;;;;;5014657;28;20167;-74
2022/10/21 05:10:29;;;;;;;4.73;2.53;;;16.90;99.90;;;;;;5014744;28;20649;-74
2022/10/21 05:12:58;;;;;;;3.27;2.80;;;16.90;99.90;;;;;;5014279;28;20569;-73
2022/10/21 05:15:26;;;;;;;4.87;2.30;;;16.90;99.90;;;;;;4997119;28;20695;-73
2022/10/21 05:17:52;;;;;;;4.73;2.77;;;16.90;99.90;;;;;;5014326;28;20620;-74
2022/10/21 05:20:18;;;;;;;3.57;2.23;;;17.00;99.90;;;;;;5013172;28;21010;-74
2022/10/21 05:22:44;;;;;;;3.70;2.80;;;17.00;99.90;;;;;;5013037;28;20680;-74
2022/10/21 05:25:10;;;;;;;4.00;2.43;;;17.00;99.90;;;;;;5013904;28;20711;-74
2022/10/21 05:27:36;;;;;;;4.87;2.60;;;17.00;99.90;;;;;;5014110;28;20576;-74
2022/10/21 05:30:03;;;;;;;4.37;2.80;;;17.00;99.90;;;;;;5014201;28;20167;-74
2022/10/21 05:32:29;;;;;;;3.33;2.20;;;17.10;99.90;;;;;;5013586;28;20570;-74
2022/10/21 05:34:55;;;;;;;4.47;3.00;;;17.10;99.90;;;;;;5014127;28;20577;-75
2022/10/21 05:37:21;;;;;;;3.13;2.27;;;17.10;99.90;;;;;;5014325;28;20174;-75
2022/10/21 05:39:47;;;;;;;5.50;2.40;;;17.10;99.90;;;;;;5014505;28;20233;-74
2022/10/21 05:42:12;;;;;;;3.90;2.67;;;17.20;99.90;;;;;;5013895;28;20623;-75
2022/10/21 05:44:38;;;;;;;8.33;3.70;;;17.20;99.90;;;;;;5013827;28;20253;-75
2022/10/21 05:47:04;;;;;;;4.60;2.63;;;17.10;99.90;;;;;;5014337;28;20167;-75
2022/10/21 05:49:30;;;;;;;2.70;2.43;;;17.20;99.90;;;;;;5013691;28;20186;-75
2022/10/21 05:51:55;;;;;;;4.23;2.23;;;17.20;99.90;;;;;;5013528;28;20756;-75
2022/10/21 05:54:21;;;;;;;2.20;1.90;;;17.20;99.90;;;;;;5013823;28;20166;-75
2022/10/21 05:56:47;;;;;;;8.87;2.40;;;17.20;99.90;;;;;;5013596;28;20188;-75
2022/10/21 05:59:13;;;;;;;4.70;2.43;;;17.10;99.90;;;;;;5013500;28;20616;-75
2022/10/21 06:01:39;;;;;;;3.60;2.10;;;17.20;99.90;;;;;;5013482;28;20533;-75
2022/10/21 06:04:05;;;;;;;3.20;1.80;;;17.20;99.90;;;;;;5013221;28;20950;-75
2022/10/21 06:06:31;;;;;;;3.20;2.53;;;17.20;99.90;;;;;;5013225;28;20593;-75
2022/10/21 06:08:57;;;;;;;3.30;2.30;;;17.20;99.90;;;;;;5013230;28;20639;-76
2022/10/21 06:11:23;;;;;;;4.33;2.43;;;17.20;99.90;;;;;;4997538;28;20568;-76
2022/10/21 06:13:49;;;;;;;2.83;1.87;;;17.20;99.90;;;;;;4993377;28;20620;-76
2022/10/21 06:16:15;;;;;;;5.50;2.40;;;17.20;99.90;;;;;;4976345;28;20713;-75
2022/10/21 06:18:41;;;;;;;3.07;2.10;;;17.20;99.90;;;;;;4993548;28;20179;-75
2022/10/21 06:21:08;;;;;;;4.10;2.20;;;17.20;99.90;;;;;;4993438;28;20576;-75
2022/10/21 06:23:34;;;;;;;2.70;2.13;;;17.20;99.90;;;;;;4993297;28;20570;-75
2022/10/21 06:26:02;;;;;;;7.40;3.40;;;17.20;99.90;;;;;;5007793;28;21195;-75
2022/10/21 06:28:30;;;;;;;6.43;2.23;;;17.20;99.90;;;;;;5013014;28;20609;-75
2022/10/21 06:30:56;;;;;;;2.07;1.87;;;17.20;99.90;;;;;;5012796;28;20573;-74
2022/10/21 06:33:22;;;;;;;2.70;1.80;;;17.20;99.90;;;;;;5012269;28;20654;-75
2022/10/21 06:35:48;;;;;;;3.10;2.43;;;17.20;99.90;;;;;;5013066;28;20206;-75
2022/10/21 06:38:14;;;;;;;3.63;2.27;;;17.20;99.90;;;;;;5014222;28;20671;-75
2022/10/21 06:40:40;;;;;;;2.23;1.90;;;17.20;99.90;;;;;;4995240;28;20233;-75
2022/10/21 06:43:06;;;;;;;3.63;2.60;;;17.20;99.90;;;;;;5012483;28;20561;-75
2022/10/21 06:45:31;;;;;;;5.40;2.23;;;17.30;99.90;;;;;;5012895;28;20586;-75
2022/10/21 06:47:57;;;;;;;3.70;2.13;;;17.30;99.90;;;;;;4995259;28;20170;-75
2022/10/21 06:50:23;;;;;;;4.80;2.17;;;17.30;99.90;;;;;;5013035;28;20178;-76
2022/10/21 06:52:49;;;;;;;3.20;2.67;;;17.30;99.90;;;;;;4995279;28;20174;-75
2022/10/21 06:55:16;;;;;;;4.10;1.80;;;17.30;99.90;;;;;;5012535;28;20636;-75
2022/10/21 06:57:42;;;;;;;4.20;2.23;;;17.40;99.90;;;;;;5012798;28;20581;-75
2022/10/21 07:00:09;;;;;;;2.97;2.17;;;17.40;99.90;;;;;;5012643;28;21172;-75
2022/10/21 07:02:34;;;;;;;3.60;2.60;;;17.40;99.90;;;;;;4994788;28;20178;-75
2022/10/21 07:05:00;;;;;;;4.20;2.30;;;17.40;99.90;;;;;;5012430;28;20663;-75
2022/10/21 07:07:26;;;;;;;3.70;2.60;;;17.40;99.90;;;;;;4995372;28;20170;-74
2022/10/21 07:09:56;;;;;;;4.10;2.47;;;17.40;99.90;;;;;;4995541;28;20566;-75
2022/10/21 07:12:25;;;;;;;2.70;2.30;;;17.40;99.90;;;;;;5013100;28;20803;-74
2022/10/21 07:14:53;;;;;;;2.97;2.20;;;17.30;99.90;;;;;;4998866;28;20733;-74
2022/10/21 07:17:19;;;;;;;2.97;1.77;;;17.30;99.90;;;;;;4995055;28;20627;-74
2022/10/21 07:19:45;;;;;;;4.40;2.30;;;17.40;99.90;;;;;;5012554;28;20700;-74
2022/10/21 07:22:12;;;;;;;3.73;2.33;;;17.40;99.90;;;;;;5012370;28;20664;-74
2022/10/21 07:24:37;;;;;;;2.70;1.90;;;17.40;99.90;;;;;;4995116;28;21064;-76
2022/10/21 07:27:03;;;;;;;3.10;2.00;;;17.50;99.90;;;;;;5013736;28;20577;-75
2022/10/21 07:29:29;;;;;;;4.10;2.00;;;17.50;99.90;;;;;;5013141;28;20189;-76
2022/10/21 07:31:55;;;;;;;3.80;2.67;;;17.50;99.90;;;;;;5012373;28;20639;-75
2022/10/21 07:34:21;;;;;;;4.00;2.27;;;17.50;99.90;;;;;;4994578;28;20192;-75
2022/10/21 07:36:51;;;;;;;8.80;2.47;;;17.60;99.90;;;;;;4994763;28;20621;-75
2022/10/21 07:39:19;;;;;;;4.53;1.60;;;17.60;99.90;;;;;;4994818;28;20208;-75
2022/10/21 07:41:52;;;;;;;5.60;1.90;;;17.60;99.90;;;;;;5011956;28;20999;-75
2022/10/21 07:44:20;;;;;;;6.80;2.50;;;17.60;99.90;;;;;;5011329;28;20565;-76
2022/10/21 07:46:46;;;;;;;2.90;1.90;;;17.60;99.90;;;;;;5012027;28;20656;-75
2022/10/21 07:49:13;;;;;;;3.50;1.97;;;17.60;99.90;;;;;;4994770;28;20581;-76
2022/10/21 07:51:39;;;;;;;5.50;2.03;;;17.70;99.90;;;;;;5016480;28;21008;-75
2022/10/21 07:54:06;;;;;;;2.37;1.70;;;17.70;99.90;;;;;;4994484;28;20924;-76
2022/10/21 07:56:44;;;;;;;3.00;2.53;;;17.70;99.90;;;;;;5011885;28;20671;-75
2022/10/21 07:59:11;;;;;;;4.43;2.00;;;17.80;99.90;;;;;;5012056;28;20680;-75
2022/10/21 08:01:39;;;;;;;3.33;1.60;;;17.80;99.90;;;;;;4978092;28;21109;-75
2022/10/21 08:04:05;;;;;;;5.10;2.77;;;17.80;99.90;;;;;;5011859;28;20565;-75
2022/10/21 08:06:31;;;;;;;4.37;2.43;;;17.80;99.90;;;;;;5011857;28;20704;-75
2022/10/21 08:08:57;;;;;;;2.83;2.30;;;17.80;99.90;;;;;;5011989;28;20564;-75
2022/10/21 08:11:26;;;;;;;3.00;1.90;;;17.80;99.90;;;;;;5011798;28;20562;-75
2022/10/21 08:13:52;;;;;;;4.40;2.07;;;17.80;99.90;;;;;;5011819;28;20170;-75
2022/10/21 08:16:18;;;;;;;3.43;2.10;;;17.80;99.90;;;;;;5011888;28;21050;-75
2022/10/21 08:18:44;;;;;;;3.90;2.80;;;17.70;99.90;;;;;;5011911;28;20573;-75
2022/10/21 08:21:09;;;;;;;3.50;2.37;;;17.60;99.90;;;;;;5011894;28;20170;-75
2022/10/21 08:23:37;;;;;;;5.23;2.20;;;17.50;99.90;;;;;;5011728;28;20170;-75
2022/10/21 08:26:03;;;;;;;2.90;2.00;;;17.40;99.90;;;;;;5011622;28;20194;-74
2022/10/21 08:28:30;;;;;;;7.40;2.30;;;17.30;99.90;;;;;;5013608;28;20649;-74
2022/10/21 08:31:17;;;;;;;4.13;3.20;;;17.20;99.90;;;;;;5012636;28;20577;-74
2022/10/21 08:33:43;;;;;;;9.03;2.80;;;17.10;99.90;;;;;;4994139;28;20589;-74
2022/10/21 08:36:15;;;;;;;4.93;2.40;;;17.00;99.90;;;;;;5011664;28;20712;-74
2022/10/21 08:38:42;;;;;;;3.47;2.57;;;16.90;99.90;;;;;;5011480;28;20672;-74
2022/10/21 08:41:26;;;;;;;4.20;2.70;;;16.80;99.90;;;;;;5011460;28;21128;-74
2022/10/21 08:43:53;;;;;;;5.77;2.50;;;16.70;99.90;;;;;;5011455;28;20601;-75
2022/10/21 08:46:26;;;;;;;3.10;2.10;;;16.60;99.90;;;;;;5011407;28;20601;-75
2022/10/21 08:48:59;;;;;;;9.50;3.30;;;16.60;99.90;;;;;;5011673;28;20576;-75
2022/10/21 08:51:27;;;;;;;6.57;2.40;;;16.60;99.90;;;;;;5011606;28;20573;-75
2022/10/21 08:53:55;;;;;;;6.17;3.40;;;16.60;99.90;;;;;;5011538;28;20557;-75
2022/10/21 08:56:23;;;;;;;2.80;2.30;;;16.60;99.90;;;;;;5014316;28;20663;-75
2022/10/21 08:58:51;;;;;;;5.40;3.40;;;16.60;99.90;;;;;;4997462;28;20573;-75
2022/10/21 09:01:20;;;;;;;4.77;2.87;;;16.60;99.90;;;;;;5015049;28;21179;-76
2022/10/21 09:04:28;;;;;;;4.63;3.03;;;16.60;99.90;;;;;;5015061;28;20632;-76
2022/10/21 09:07:18;;;;;;;6.63;3.40;;;16.60;99.90;;;;;;5008966;28;20620;-75
2022/10/21 09:09:52;;;;;;;5.33;3.30;;;16.60;99.90;;;;;;5000926;28;20594;-75
2022/10/21 09:12:18;;;;;;;5.67;2.80;;;16.70;99.90;;;;;;5014714;28;20588;-75
2022/10/21 09:15:07;;;;;;;8.40;3.30;;;16.70;99.90;;;;;;5014605;28;20632;-76
2022/10/21 09:18:02;;;;;;;5.07;3.87;;;16.60;99.90;;;;;;5014802;28;21014;-75
2022/10/21 09:20:46;;;;;;;4.63;3.20;;;16.60;99.90;;;;;;5014687;28;20652;-75
2022/10/21 09:23:21;;;;;;;5.67;3.73;;;16.70;99.90;;;;;;5014542;28;20561;-76
2022/10/21 09:26:08;;;;;;;5.00;3.60;;;16.70;99.90;;;;;;5014811;28;20612;-75
2022/10/21 09:28:35;;;;;;;7.13;2.83;;;16.70;99.90;;;;;;4998302;28;21168;-76
2022/10/21 09:31:02;;;;;;;4.27;2.43;;;16.70;99.90;;;;;;4998911;28;20636;-76
2022/10/21 09:33:33;;;;;;;6.67;3.97;;;16.70;99.90;;;;;;5015386;28;20656;-75
2022/10/21 09:36:06;;;;;;;6.53;2.97;;;16.70;99.90;;;;;;5015080;28;21159;-75
2022/10/21 09:38:51;;;;;;;3.93;3.17;;;16.70;99.90;;;;;;5015344;28;20604;-76
2022/10/21 09:41:26;;;;;;;4.60;4.10;;;16.70;99.90;;;;;;5014961;28;20576;-76
2022/10/21 09:43:52;;;;;;;5.20;3.20;;;16.70;99.90;;;;;;5016710;28;20565;-76
2022/10/21 09:46:19;;;;;;;3.40;3.10;;;16.70;99.90;;;;;;5014455;28;21167;-74
2022/10/21 09:48:50;;;;;;;6.77;3.40;;;16.60;99.90;;;;;;4997339;28;20581;-74
2022/10/21 09:51:38;;;;;;;4.10;3.67;;;16.60;99.90;;;;;;4997291;28;20573;-74
2022/10/21 09:54:16;;;;;;;6.30;3.73;;;16.70;99.90;;;;;;4997056;28;20584;-75
2022/10/21 09:56:48;;;;;;;3.57;3.10;;;16.80;99.90;;;;;;5014548;28;20639;-75
2022/10/21 09:59:18;;;;;;;4.80;3.00;;;16.80;99.90;;;;;;5014387;28;20635;-75
2022/10/21 10:01:44;;;;;;;5.53;2.60;;;16.90;99.90;;;;;;5014186;28;20566;-75
2022/10/21 10:04:29;;;;;;;4.50;2.73;;;16.90;99.90;;;;;;4996389;28;20601;-74
2022/10/21 10:06:56;;;;;;;5.07;2.60;;;17.00;99.90;;;;;;5012852;28;20589;-74
2022/10/21 10:09:25;;;;;;;4.60;2.97;;;17.10;99.90;;;;;;5013923;28;20585;-74
2022/10/21 10:11:53;;;;;;;3.40;2.80;;;17.20;99.90;;;;;;5013781;28;20562;-74
2022/10/21 10:14:28;;;;;;;4.43;3.30;;;17.30;99.90;;;;;;5013762;28;20565;-75
2022/10/21 10:16:55;;;;;;;3.10;2.60;;;17.40;99.90;;;;;;5013575;28;20600;-75
2022/10/21 10:19:24;;;;;;;4.80;3.50;;;17.50;99.90;;;;;;5013495;28;20620;-74
2022/10/21 10:22:12;;;;;;;6.13;3.40;;;17.60;99.90;;;;;;5013654;28;20959;-73
2022/10/21 10:24:44;;;;;;;4.73;3.07;;;17.60;99.90;;;;;;5013265;28;21190;-74
2022/10/21 10:27:13;;;;;;;5.10;3.63;;;17.70;99.90;;;;;;5013740;28;20920;-73
2022/10/21 10:29:41;;;;;;;3.90;2.90;;;17.80;99.90;;;;;;5013471;28;20561;-73
2022/10/21 10:32:13;;;;;;;4.87;3.10;;;17.90;99.90;;;;;;5013184;28;20577;-74
2022/10/21 10:34:49;;;;;;;4.03;2.77;;;17.90;99.90;;;;;;5014030;28;20569;-73
2022/10/21 10:37:18;;;;;;;6.60;3.17;;;17.90;99.90;;;;;;5013263;28;20569;-75
2022/10/21 10:39:55;;;;;;;4.17;2.50;;;17.90;99.90;;;;;;5013230;28;20655;-75
2022/10/21 10:42:30;;;;;;;5.73;2.53;;;18.00;99.90;;;;;;5007550;28;20584;-76
2022/10/21 10:45:01;;;;;;;5.73;2.80;;;17.90;99.90;;;;;;5013637;28;20646;-75
2022/10/21 10:47:39;;;;;;;4.40;2.83;;;17.90;99.90;;;;;;5013521;28;20588;-75
2022/10/21 10:50:37;;;;;;;5.23;3.33;;;17.90;99.90;;;;;;5013220;28;20609;-75
2022/10/21 10:53:24;;;;;;;5.03;4.50;;;18.00;99.90;;;;;;5013101;28;20577;-75
2022/10/21 10:56:40;;;;;;;4.30;3.70;;;18.00;99.90;;;;;;5012815;28;20651;-75
2022/10/21 10:59:30;;;;;;;4.70;3.57;;;17.90;99.90;;;;;;5006975;28;20633;-75
2022/10/21 11:01:56;;;;;;;6.93;4.30;;;18.00;99.90;;;;;;5012110;28;21101;-75
2022/10/21 11:04:36;;;;;;;7.97;4.20;;;18.10;99.90;;;;;;5012492;28;20574;-76
2022/10/21 11:07:29;;;;;;;5.07;3.43;;;18.00;99.90;;;;;;5011344;28;20182;-75
2022/10/21 11:10:30;;;;;;;7.77;3.10;;;18.10;99.90;;;;;;5013085;28;20676;-75
2022/10/21 11:12:57;;;;;;;5.33;2.90;;;18.10;99.90;;;;;;5011419;28;20570;-75
2022/10/21 11:15:41;;;;;;;5.70;3.10;;;18.20;99.90;;;;;;5012708;28;20604;-75
2022/10/21 11:18:16;;;;;;;4.67;3.37;;;18.20;99.90;;;;;;5055808;22;20658;-77
2022/10/21 11:21:14;;;;;;;6.00;2.87;;;18.20;99.90;;;;;;5044671;28;20733;-77
2022/10/21 11:24:04;;;;;;;5.27;2.93;;;18.20;99.90;;;;;;5066246;28;20584;-77
2022/10/21 11:26:42;;;;;;;6.70;3.73;;;18.30;99.90;;;;;;5063770;28;21011;-77
2022/10/21 11:29:45;;;;;;;4.60;3.30;;;18.30;99.90;;;;;;5047267;28;20583;-76
2022/10/21 11:32:37;;;;;;;3.50;2.87;;;18.40;99.90;;;;;;5046998;28;20605;-76
2022/10/21 11:35:05;;;;;;;3.97;3.57;;;18.40;99.90;;;;;;5031651;28;20652;-77
2022/10/21 11:38:09;;;;;;;3.90;3.03;;;18.50;99.90;;;;;;5025819;28;20619;-77
2022/10/21 11:40:45;;;;;;;2.80;2.13;;;18.60;99.90;;;;;;5038648;28;20989;-77
2022/10/21 11:43:33;;;;;;;4.43;2.47;;;18.70;99.90;;;;;;5051187;28;21155;-77
2022/10/21 11:46:10;;;;;;;3.40;3.10;;;18.80;99.90;;;;;;5033831;28;20674;-77
2022/10/21 11:48:41;;;;;;;4.70;3.63;;;18.80;99.90;;;;;;5033849;28;20682;-77
2022/10/21 11:51:31;;;;;;;5.80;3.10;;;18.90;99.90;;;;;;5052188;28;20567;-77
2022/10/21 11:54:25;;;;;;;5.07;3.10;;;19.00;99.90;;;;;;5050205;28;21219;-77
2022/10/21 11:57:16;;;;;;;4.13;3.30;;;19.00;99.90;;;;;;5051155;28;20661;-77
2022/10/21 11:59:42;;;;;;;4.33;2.90;;;19.20;99.90;;;;;;5047942;28;20623;-77
2022/10/21 12:02:26;;;;;;;4.80;3.07;;;19.40;99.90;;;;;;5051280;28;20672;-77
2022/10/21 12:05:06;;;;;;;4.50;2.60;;;19.40;99.90;;;;;;5051632;28;20541;-77
2022/10/21 12:07:59;;;;;;;5.33;2.60;;;19.60;99.90;;;;;;5050304;28;20615;-77
2022/10/21 12:10:31;;;;;;;3.93;1.93;;;19.70;99.90;;;;;;5040048;28;20591;-77
2022/10/21 12:13:15;;;;;;;3.50;2.00;;;19.80;99.90;;;;;;5050756;28;20596;-77
2022/10/21 12:15:52;;;;;;;5.90;1.97;;;19.90;99.90;;;;;;5048890;28;20583;-77
2022/10/21 12:18:22;;;;;;;3.23;1.50;;;20.00;99.90;;;;;;5051009;28;20680;-77
2022/10/21 12:20:52;;;;;;;3.43;1.67;;;20.10;99.90;;;;;;5051156;28;20722;-78
2022/10/21 12:23:21;;;;;;;4.37;1.83;;;20.20;99.90;;;;;;5049836;28;20571;-77
2022/10/21 12:26:18;;;;;;;3.30;1.90;;;20.20;99.90;;;;;;5051112;28;20663;-77
2022/10/21 12:28:57;;;;;;;5.80;2.93;;;20.10;99.90;;;;;;5051518;28;20575;-77
2022/10/21 12:31:54;;;;;;;6.23;2.90;;;20.20;99.90;;;;;;5053038;28;21123;-77
2022/10/21 12:34:21;;;;;;;3.30;1.77;;;20.10;99.90;;;;;;5014064;28;20699;-76
2022/10/21 12:36:49;;;;;;;4.60;1.73;;;20.10;99.90;;;;;;5034972;28;20640;-76
2022/10/21 12:39:32;;;;;;;3.27;1.50;;;20.10;99.90;;;;;;5034950;28;20978;-76
2022/10/21 12:42:11;;;;;;;2.80;1.50;;;20.10;99.90;;;;;;5034480;28;20585;-77
2022/10/21 12:44:38;;;;;;;3.53;1.50;;;20.10;99.90;;;;;;5034987;28;20568;-76
2022/10/21 12:47:24;;;;;;;2.87;1.20;;;20.20;99.90;;;;;;5034772;28;20607;-76
2022/10/21 12:50:12;;;;;;;3.20;1.53;;;20.30;99.90;;;;;;5016800;28;20581;-77
2022/10/21 12:52:40;;;;;;;2.83;1.23;;;20.30;99.90;;;;;;5034261;28;20579;-77
2022/10/21 12:55:21;;;;;;;3.10;1.70;;;20.40;99.90;;;;;;5034873;28;20564;-77
2022/10/21 12:58:00;;;;;;;3.30;1.60;;;20.40;99.90;;;;;;5034661;28;20615;-77
2022/10/21 13:00:26;;;;;;;7.90;2.07;;;20.40;99.90;;;;;;5034640;28;20631;-77
2022/10/21 13:03:20;;;;;;;2.67;1.57;;;20.50;99.90;;;;;;5034162;28;20562;-76
2022/10/21 13:05:46;;;;;;;3.00;1.50;;;20.60;99.90;;;;;;5035505;28;20181;-77
2022/10/21 13:08:25;;;;;;;3.27;2.00;;;20.70;99.90;;;;;;5034444;28;20600;-77